Time;durP1;ratioP1;P1;durP2;ratioP2;P2;SDS_P1;SDS_P2;PMS_P1;PMS_P2;Temp;Humidity;BMP_temperature;BMP_pressure;BME280_temperature;BME280_humidity;BME280_pressure;Samples;Min_cycle;Max_cycle;Signal;HPM_P1;HPM_P2
2022/10/26 00:01:25;;;;;;;0.93;0.82;;;23.60;70.80;;;;;;4051444;29;20080;-60
2022/10/26 00:03:47;;;;;;;1.33;0.90;;;23.70;70.80;;;;;;4050379;29;20147;-60
2022/10/26 00:06:16;;;;;;;0.88;0.70;;;23.70;70.70;;;;;;4052585;29;20179;-60
2022/10/26 00:08:38;;;;;;;1.10;0.73;;;23.70;70.70;;;;;;4052299;29;20083;-60
2022/10/26 00:11:01;;;;;;;0.68;0.68;;;23.70;71.20;;;;;;4049590;29;20564;-60
2022/10/26 00:13:23;;;;;;;1.00;0.80;;;23.70;70.50;;;;;;4050810;29;20051;-60
2022/10/26 00:15:46;;;;;;;0.70;0.63;;;23.80;70.50;;;;;;4051655;29;20695;-60
2022/10/26 00:18:09;;;;;;;1.05;0.85;;;23.80;70.50;;;;;;4049545;29;20119;-61
2022/10/26 00:20:32;;;;;;;0.87;0.80;;;23.80;70.40;;;;;;4049331;29;20036;-60
2022/10/26 00:22:55;;;;;;;0.98;0.80;;;23.80;70.30;;;;;;4049980;29;20051;-60
2022/10/26 00:25:17;;;;;;;0.90;0.80;;;23.90;70.20;;;;;;4051228;29;21015;-60
2022/10/26 00:27:40;;;;;;;1.02;0.73;;;23.80;70.20;;;;;;4051214;29;20047;-60
2022/10/26 00:30:05;;;;;;;1.15;0.60;;;23.80;70.20;;;;;;4049520;29;20043;-60
2022/10/26 00:32:27;;;;;;;0.60;0.60;;;23.80;70.20;;;;;;4051330;29;20095;-60
2022/10/26 00:34:50;;;;;;;0.57;0.57;;;23.80;70.10;;;;;;4050599;29;20072;-60
2022/10/26 00:37:12;;;;;;;0.75;0.70;;;23.80;70.20;;;;;;4050223;29;20252;-60
2022/10/26 00:39:35;;;;;;;1.27;0.80;;;23.80;70.20;;;;;;4053692;29;20040;-59
2022/10/26 00:41:58;;;;;;;0.70;0.60;;;23.80;70.20;;;;;;4049798;29;20114;-60
2022/10/26 00:44:56;;;;;;;1.20;0.65;;;23.80;70.20;;;;;;4050654;29;20040;-59
2022/10/26 00:47:32;;;;;;;0.60;0.60;;;23.80;70.30;;;;;;4052251;29;20047;-60
2022/10/26 00:49:57;;;;;;;0.50;0.50;;;23.80;70.30;;;;;;4056295;29;20040;-60
2022/10/26 00:52:20;;;;;;;0.60;0.52;;;23.80;70.20;;;;;;4047526;29;20055;-61
2022/10/26 00:54:44;;;;;;;1.30;0.70;;;23.80;70.20;;;;;;4052285;29;20803;-60
2022/10/26 00:57:07;;;;;;;0.50;0.50;;;23.90;70.30;;;;;;4051513;29;20111;-60
2022/10/26 00:59:30;;;;;;;0.63;0.63;;;23.90;70.30;;;;;;4053553;29;20047;-61
2022/10/26 01:01:53;;;;;;;0.82;0.60;;;23.90;70.20;;;;;;4053384;29;20034;-60
2022/10/26 01:04:17;;;;;;;0.90;0.60;;;23.90;70.10;;;;;;4054186;29;20048;-60
2022/10/26 01:06:40;;;;;;;;;;;23.90;70.10;;;;;;4053743;29;20047;-60
2022/10/26 01:09:03;;;;;;;0.70;0.60;;;23.90;70.10;;;;;;4062360;28;19917;-60
2022/10/26 01:11:26;;;;;;;0.67;0.50;;;23.90;70.20;;;;;;4057800;29;20036;-60
2022/10/26 01:13:52;;;;;;;0.40;0.40;;;24.00;70.10;;;;;;4059254;29;20036;-61
2022/10/26 01:16:44;;;;;;;0.30;0.30;;;24.00;70.00;;;;;;4056462;29;20044;-60
2022/10/26 01:19:21;;;;;;;0.40;0.40;;;24.00;70.00;;;;;;4054038;29;20035;-60
2022/10/26 01:22:06;;;;;;;0.98;0.50;;;24.00;69.80;;;;;;4049715;29;20056;-60
2022/10/26 01:24:42;;;;;;;0.80;0.50;;;24.00;69.70;;;;;;4049008;29;20083;-59
2022/10/26 01:27:39;;;;;;;1.05;0.50;;;24.00;69.60;;;;;;4050709;29;20048;-59
2022/10/26 01:30:27;;;;;;;1.27;0.60;;;24.10;69.60;;;;;;4052333;29;20063;-60
2022/10/26 01:33:26;;;;;;;0.50;0.50;;;24.10;69.50;;;;;;4051186;29;20090;-59
2022/10/26 01:36:15;;;;;;;0.60;0.45;;;24.10;69.50;;;;;;4051805;29;20488;-59
2022/10/26 01:38:44;;;;;;;1.60;0.43;;;24.10;69.40;;;;;;4050560;29;20068;-60
2022/10/26 01:41:06;;;;;;;0.68;0.50;;;24.10;69.30;;;;;;4049474;29;20150;-60
2022/10/26 01:43:33;;;;;;;0.40;0.40;;;24.20;69.20;;;;;;4047921;29;20190;-61
2022/10/26 01:45:56;;;;;;;0.50;0.50;;;24.20;69.20;;;;;;4054049;29;20564;-60
2022/10/26 01:48:22;;;;;;;0.50;0.40;;;24.20;69.10;;;;;;4049844;29;20052;-59
2022/10/26 01:50:50;;;;;;;0.38;0.38;;;24.20;69.10;;;;;;4051643;29;20123;-60
2022/10/26 01:53:14;;;;;;;0.68;0.55;;;24.20;69.00;;;;;;4049144;29;20047;-59
2022/10/26 01:55:46;;;;;;;0.35;0.35;;;24.20;68.90;;;;;;4054128;29;20094;-60
2022/10/26 01:58:44;;;;;;;0.45;0.45;;;24.20;68.80;;;;;;4048360;29;20040;-60
2022/10/26 02:01:19;;;;;;;0.40;0.40;;;24.20;68.80;;;;;;4048393;29;20430;-60
2022/10/26 02:04:14;;;;;;;0.73;0.50;;;24.20;68.70;;;;;;4053667;29;20040;-60
2022/10/26 02:06:41;;;;;;;0.47;0.47;;;24.30;68.70;;;;;;4048375;29;20049;-60
2022/10/26 02:09:09;;;;;;;0.40;0.40;;;24.30;68.60;;;;;;4052457;29;20449;-59
2022/10/26 02:11:45;;;;;;;1.17;0.40;;;24.30;68.50;;;;;;4049708;29;20047;-59
2022/10/26 02:14:30;;;;;;;0.40;0.40;;;24.30;68.50;;;;;;4052771;29;20040;-60
2022/10/26 02:16:55;;;;;;;0.30;0.30;;;24.30;68.40;;;;;;4054186;29;20051;-60
2022/10/26 02:19:25;;;;;;;0.30;0.30;;;24.30;68.30;;;;;;4053970;29;20479;-60
2022/10/26 02:21:56;;;;;;;0.68;0.50;;;24.30;68.30;;;;;;4051664;29;20051;-59
2022/10/26 02:24:21;;;;;;;0.52;0.52;;;24.30;68.30;;;;;;4052789;29;20056;-60
2022/10/26 02:26:47;;;;;;;0.30;0.30;;;24.30;68.20;;;;;;4050946;29;20040;-60
2022/10/26 02:29:15;;;;;;;0.30;0.30;;;24.40;68.20;;;;;;4052340;29;20598;-60
2022/10/26 02:31:40;;;;;;;0.30;0.30;;;24.40;68.10;;;;;;4054775;29;20044;-59
2022/10/26 02:34:08;;;;;;;0.47;0.40;;;24.40;68.00;;;;;;4055126;29;20556;-59
2022/10/26 02:36:34;;;;;;;0.40;0.40;;;24.40;67.90;;;;;;4052439;29;20151;-60
2022/10/26 02:38:57;;;;;;;0.30;0.30;;;24.40;67.80;;;;;;4052858;29;20032;-59
2022/10/26 02:41:21;;;;;;;;;;;24.40;67.70;;;;;;4050822;29;20508;-60
2022/10/26 02:44:03;;;;;;;0.32;0.30;;;24.40;67.60;;;;;;4051376;29;19914;-59
2022/10/26 02:46:28;;;;;;;0.75;0.43;;;24.50;67.50;;;;;;4055721;29;20875;-59
2022/10/26 02:48:50;;;;;;;0.20;0.20;;;24.50;67.40;;;;;;4056086;29;20062;-60
2022/10/26 02:51:28;;;;;;;0.40;0.30;;;24.50;67.20;;;;;;4053100;29;20629;-59
2022/10/26 02:53:58;;;;;;;0.40;0.40;;;24.50;67.20;;;;;;4048439;29;20048;-60
2022/10/26 02:56:28;;;;;;;0.35;0.32;;;24.50;67.10;;;;;;4053954;29;20056;-59
2022/10/26 02:58:55;;;;;;;0.38;0.30;;;24.60;67.20;;;;;;4055838;29;20452;-59
2022/10/26 03:01:17;;;;;;;0.30;0.30;;;24.60;67.00;;;;;;4052631;29;20044;-60
2022/10/26 03:03:40;;;;;;;0.40;0.40;;;24.60;67.00;;;;;;4055381;29;20044;-60
2022/10/26 03:06:02;;;;;;;0.30;0.30;;;24.60;66.80;;;;;;4055436;29;20044;-59
2022/10/26 03:08:25;;;;;;;0.30;0.30;;;24.60;66.70;;;;;;4055617;29;20040;-60
2022/10/26 03:10:48;;;;;;;0.43;0.40;;;24.70;66.80;;;;;;4054180;29;20424;-59
2022/10/26 03:13:12;;;;;;;0.32;0.32;;;24.70;66.80;;;;;;4055608;29;20175;-59
2022/10/26 03:15:35;;;;;;;0.30;0.30;;;24.60;66.70;;;;;;4050435;29;20217;-60
2022/10/26 03:17:57;;;;;;;0.30;0.30;;;24.70;66.70;;;;;;4046038;29;20052;-59
2022/10/26 03:20:20;;;;;;;0.40;0.40;;;24.70;66.60;;;;;;4044208;29;20044;-59
2022/10/26 03:22:42;;;;;;;0.30;0.30;;;24.70;66.50;;;;;;4049864;29;20586;-59
2022/10/26 03:25:05;;;;;;;0.65;0.40;;;24.70;66.40;;;;;;4049553;29;20107;-60
2022/10/26 03:27:28;;;;;;;0.30;0.30;;;24.70;66.40;;;;;;4048525;29;20044;-60
2022/10/26 03:29:51;;;;;;;0.20;0.20;;;24.70;66.30;;;;;;4052514;29;20496;-59
2022/10/26 03:32:13;;;;;;;0.52;0.52;;;24.80;66.20;;;;;;4050603;29;20282;-59
2022/10/26 03:34:36;;;;;;;0.22;0.22;;;24.80;66.80;;;;;;4052967;29;20048;-59
2022/10/26 03:36:59;;;;;;;0.40;0.30;;;24.80;66.10;;;;;;4051975;29;20048;-60
2022/10/26 03:39:21;;;;;;;0.30;0.30;;;24.80;66.00;;;;;;4053455;29;20040;-59
2022/10/26 03:41:44;;;;;;;0.30;0.30;;;24.80;66.00;;;;;;4052857;29;20127;-59
2022/10/26 03:44:06;;;;;;;0.28;0.28;;;24.90;65.90;;;;;;4045934;29;20071;-60
2022/10/26 03:46:29;;;;;;;0.38;0.38;;;24.80;65.60;;;;;;4044732;29;20094;-59
2022/10/26 03:48:51;;;;;;;0.77;0.40;;;24.90;65.50;;;;;;4049972;29;20038;-60
2022/10/26 03:51:14;;;;;;;0.35;0.30;;;25.00;65.60;;;;;;4051392;29;20166;-60
2022/10/26 03:53:36;;;;;;;0.30;0.30;;;25.00;65.50;;;;;;4051079;29;20063;-59
2022/10/26 03:55:59;;;;;;;0.30;0.30;;;25.10;65.20;;;;;;4051179;29;20048;-60
2022/10/26 03:58:21;;;;;;;0.30;0.30;;;25.00;65.10;;;;;;4048433;29;20096;-59
2022/10/26 04:00:44;;;;;;;0.47;0.30;;;25.10;65.20;;;;;;4052650;29;20049;-59
2022/10/26 04:03:06;;;;;;;0.40;0.20;;;25.10;65.10;;;;;;4052213;29;20515;-59
2022/10/26 04:05:29;;;;;;;0.40;0.40;;;25.10;65.10;;;;;;4052030;29;20048;-59
2022/10/26 04:07:57;;;;;;;0.67;0.40;;;25.20;65.00;;;;;;4050750;29;20463;-59
2022/10/26 04:10:19;;;;;;;0.30;0.30;;;25.20;64.80;;;;;;4053176;29;20040;-60
2022/10/26 04:12:42;;;;;;;0.30;0.30;;;25.30;64.60;;;;;;4052035;29;20138;-59
2022/10/26 04:15:05;;;;;;;0.38;0.38;;;25.30;64.60;;;;;;4052994;29;20036;-60
2022/10/26 04:17:28;;;;;;;0.88;0.30;;;25.40;64.30;;;;;;4052313;29;20055;-59
2022/10/26 04:19:51;;;;;;;0.40;0.40;;;25.40;64.10;;;;;;4049839;29;20056;-59
2022/10/26 04:22:13;;;;;;;0.20;0.20;;;25.40;64.00;;;;;;4049908;29;20507;-59
2022/10/26 04:24:36;;;;;;;0.30;0.30;;;25.50;63.80;;;;;;4038530;29;20059;-59
2022/10/26 04:26:58;;;;;;;0.40;0.40;;;25.60;64.20;;;;;;4051269;29;20036;-59
2022/10/26 04:29:21;;;;;;;0.68;0.40;;;25.60;63.30;;;;;;4049160;29;20044;-60
2022/10/26 04:31:44;;;;;;;0.30;0.30;;;25.70;63.30;;;;;;4053365;29;20122;-58
2022/10/26 04:34:06;;;;;;;0.38;0.30;;;25.70;63.00;;;;;;4050468;29;20040;-59
2022/10/26 04:36:30;;;;;;;0.20;0.20;;;25.80;63.20;;;;;;4053701;29;20048;-59
2022/10/26 04:38:52;;;;;;;0.40;0.40;;;25.80;62.80;;;;;;4050678;29;20051;-59
2022/10/26 04:41:15;;;;;;;0.30;0.30;;;25.90;62.70;;;;;;4050053;29;20052;-60
2022/10/26 04:43:38;;;;;;;0.40;0.40;;;26.00;62.70;;;;;;4054422;29;20436;-59
2022/10/26 04:46:00;;;;;;;0.30;0.30;;;26.00;63.10;;;;;;4049744;29;20606;-59
2022/10/26 04:48:23;;;;;;;0.30;0.30;;;26.10;62.20;;;;;;4048747;29;20039;-60
2022/10/26 04:50:46;;;;;;;0.40;0.40;;;26.20;62.30;;;;;;4051246;29;20055;-59
2022/10/26 04:53:09;;;;;;;0.25;0.25;;;26.20;61.80;;;;;;4045616;29;20812;-59
2022/10/26 04:55:32;;;;;;;0.47;0.47;;;26.30;61.70;;;;;;4052877;29;20484;-59
2022/10/26 04:57:55;;;;;;;0.57;0.40;;;26.40;61.90;;;;;;4053280;29;20567;-59
2022/10/26 05:00:17;;;;;;;0.40;0.40;;;26.40;61.40;;;;;;4049253;29;20294;-59
2022/10/26 05:02:40;;;;;;;0.30;0.30;;;26.50;61.60;;;;;;4051779;29;20051;-60
2022/10/26 05:05:02;;;;;;;0.30;0.30;;;26.60;61.10;;;;;;4050508;29;20036;-60
2022/10/26 05:07:25;;;;;;;0.77;0.50;;;26.60;60.80;;;;;;4051037;29;20051;-60
2022/10/26 05:09:48;;;;;;;0.50;0.50;;;26.70;60.50;;;;;;4050836;29;20127;-60
2022/10/26 05:12:10;;;;;;;0.40;0.32;;;26.80;60.40;;;;;;4052748;29;20126;-59
2022/10/26 05:14:33;;;;;;;0.82;0.50;;;26.80;60.40;;;;;;4051683;29;20925;-60
2022/10/26 05:16:56;;;;;;;0.73;0.40;;;26.90;60.40;;;;;;4050501;29;20055;-59
2022/10/26 05:19:18;;;;;;;;;;;26.90;60.50;;;;;;4052141;29;20044;-60
2022/10/26 05:21:41;;;;;;;0.30;0.30;;;27.00;60.40;;;;;;4052744;29;20167;-60
2022/10/26 05:24:03;;;;;;;0.40;0.40;;;27.00;60.40;;;;;;4053192;29;20125;-60
2022/10/26 05:26:26;;;;;;;0.85;0.40;;;27.10;60.50;;;;;;4054205;29;20047;-60
2022/10/26 05:28:50;;;;;;;0.35;0.30;;;27.10;60.20;;;;;;4060603;28;20028;-60
2022/10/26 05:31:13;;;;;;;0.68;0.40;;;27.20;60.00;;;;;;4061655;29;20234;-59
2022/10/26 05:33:38;;;;;;;0.40;0.40;;;27.20;60.20;;;;;;4063990;29;20040;-59
2022/10/26 05:36:01;;;;;;;0.40;0.40;;;27.20;60.60;;;;;;4058800;29;20103;-60
2022/10/26 05:38:23;;;;;;;0.30;0.30;;;27.20;60.30;;;;;;4048853;29;20154;-60
2022/10/26 05:40:53;;;;;;;0.30;0.30;;;27.20;60.20;;;;;;4049133;29;20256;-60
2022/10/26 05:43:16;;;;;;;0.80;0.45;;;27.30;60.10;;;;;;4049360;29;20040;-59
2022/10/26 05:45:39;;;;;;;0.98;0.40;;;27.30;60.30;;;;;;4052083;29;20099;-59
2022/10/26 05:48:02;;;;;;;1.03;0.50;;;27.40;59.90;;;;;;4049550;29;20040;-60
2022/10/26 05:50:24;;;;;;;0.40;0.40;;;27.40;59.70;;;;;;4044789;29;20783;-60
2022/10/26 05:52:49;;;;;;;0.65;0.45;;;27.40;59.60;;;;;;4048479;29;20094;-60
2022/10/26 05:55:15;;;;;;;0.40;0.40;;;27.40;59.40;;;;;;4049920;29;20511;-60
2022/10/26 05:57:38;;;;;;;0.40;0.40;;;27.40;59.40;;;;;;4051355;29;20192;-59
2022/10/26 06:00:01;;;;;;;0.57;0.47;;;27.50;59.10;;;;;;4051897;29;20063;-60
2022/10/26 06:02:37;;;;;;;0.38;0.30;;;27.40;59.20;;;;;;4049951;29;20046;-59
2022/10/26 06:05:04;;;;;;;1.00;0.40;;;27.40;59.40;;;;;;4050694;29;20051;-59
2022/10/26 06:07:27;;;;;;;1.38;0.50;;;27.50;58.90;;;;;;4051977;29;20048;-59
2022/10/26 06:09:50;;;;;;;0.80;0.47;;;27.50;58.70;;;;;;4052002;29;20562;-60
2022/10/26 06:12:14;;;;;;;1.40;0.80;;;27.50;57.70;;;;;;4047480;29;20047;-59
2022/10/26 06:14:37;;;;;;;1.00;0.50;;;27.60;57.00;;;;;;4047536;29;20040;-59
2022/10/26 06:17:27;;;;;;;0.40;0.40;;;27.60;56.10;;;;;;4050164;29;20066;-60
2022/10/26 06:20:07;;;;;;;1.20;0.40;;;27.70;56.10;;;;;;4049729;29;20451;-60
2022/10/26 06:22:32;;;;;;;1.38;0.50;;;27.70;55.30;;;;;;4046707;29;20122;-60
2022/10/26 06:25:29;;;;;;;0.40;0.40;;;27.70;55.30;;;;;;4052792;29;20841;-60
2022/10/26 06:28:13;;;;;;;1.40;0.60;;;27.70;55.50;;;;;;4052743;29;20075;-60
2022/10/26 06:30:35;;;;;;;0.95;0.60;;;27.80;55.30;;;;;;4054524;29;20040;-59
2022/10/26 06:33:00;;;;;;;1.95;0.52;;;27.80;55.00;;;;;;4053015;29;20424;-60
2022/10/26 06:35:40;;;;;;;1.02;0.50;;;27.80;54.30;;;;;;4048112;29;20036;-59
2022/10/26 06:38:11;;;;;;;0.65;0.57;;;27.70;54.40;;;;;;4044669;29;20492;-59
2022/10/26 06:40:37;;;;;;;1.25;0.50;;;27.70;54.40;;;;;;4047929;29;20039;-60
2022/10/26 06:43:00;;;;;;;0.77;0.50;;;27.60;54.70;;;;;;4049894;29;20048;-59
2022/10/26 06:45:23;;;;;;;0.82;0.55;;;27.60;54.90;;;;;;4051039;29;20119;-60
2022/10/26 06:48:08;;;;;;;0.60;0.60;;;27.50;55.00;;;;;;4052783;29;20135;-59
2022/10/26 06:50:37;;;;;;;0.55;0.40;;;27.50;55.20;;;;;;4050963;29;20102;-60
2022/10/26 06:53:05;;;;;;;0.88;0.60;;;27.50;55.20;;;;;;4052641;29;20048;-59
2022/10/26 06:55:41;;;;;;;1.50;0.40;;;27.40;55.20;;;;;;4048879;29;20133;-60
2022/10/26 06:58:04;;;;;;;0.95;0.40;;;27.40;55.20;;;;;;4047057;29;20048;-60
2022/10/26 07:00:27;;;;;;;0.93;0.50;;;27.40;55.40;;;;;;4051849;29;20044;-60
2022/10/26 07:02:50;;;;;;;0.50;0.40;;;27.30;55.40;;;;;;4049716;29;20151;-60
2022/10/26 07:05:12;;;;;;;1.27;0.73;;;27.30;55.10;;;;;;4051781;29;20401;-60
2022/10/26 07:07:38;;;;;;;0.57;0.30;;;27.20;55.10;;;;;;4052126;29;20040;-60
2022/10/26 07:10:01;;;;;;;0.65;0.50;;;27.20;55.10;;;;;;4053440;29;20333;-59
2022/10/26 07:12:23;;;;;;;1.10;0.60;;;27.20;55.00;;;;;;4051784;29;20043;-60
2022/10/26 07:14:46;;;;;;;0.85;0.60;;;27.20;54.60;;;;;;4054905;29;20044;-60
2022/10/26 07:17:10;;;;;;;0.45;0.40;;;27.20;54.60;;;;;;4051800;29;20576;-60
2022/10/26 07:19:32;;;;;;;0.85;0.40;;;27.10;54.20;;;;;;4062285;29;20122;-61
2022/10/26 07:21:59;;;;;;;1.55;0.50;;;27.10;54.50;;;;;;4053485;29;20052;-59
2022/10/26 07:24:22;;;;;;;0.85;0.50;;;27.10;54.50;;;;;;4050200;29;20441;-60
2022/10/26 07:26:44;;;;;;;0.50;0.40;;;27.10;54.90;;;;;;4050484;29;20099;-60
2022/10/26 07:29:07;;;;;;;0.50;0.50;;;27.00;54.60;;;;;;4047046;29;20043;-60
2022/10/26 07:31:29;;;;;;;0.40;0.40;;;27.00;54.90;;;;;;4049500;29;20051;-59
2022/10/26 07:33:53;;;;;;;0.40;0.40;;;26.90;55.00;;;;;;4051058;29;20040;-60
2022/10/26 07:36:16;;;;;;;0.45;0.40;;;26.90;54.90;;;;;;4052148;29;20529;-60
2022/10/26 07:38:39;;;;;;;0.73;0.57;;;26.90;54.80;;;;;;4052154;29;20080;-60
2022/10/26 07:41:02;;;;;;;0.47;0.47;;;26.90;54.70;;;;;;4049797;29;20421;-59
2022/10/26 07:43:25;;;;;;;0.73;0.60;;;26.90;55.00;;;;;;4051768;29;20346;-59
2022/10/26 07:45:50;;;;;;;0.40;0.40;;;26.90;55.00;;;;;;4051355;29;20445;-60
2022/10/26 07:48:12;;;;;;;0.40;0.40;;;26.90;55.00;;;;;;4050060;29;20063;-60
2022/10/26 07:50:35;;;;;;;1.05;0.50;;;26.80;55.00;;;;;;4052766;29;20055;-60
2022/10/26 07:52:58;;;;;;;0.60;0.40;;;26.80;55.00;;;;;;4051599;29;20687;-59
2022/10/26 07:55:21;;;;;;;0.50;0.50;;;26.80;54.70;;;;;;4048057;29;20418;-60
2022/10/26 07:57:43;;;;;;;0.45;0.40;;;26.80;54.70;;;;;;4052474;29;20079;-59
2022/10/26 08:00:08;;;;;;;1.45;0.68;;;26.80;54.60;;;;;;4052227;29;20071;-59
2022/10/26 08:02:31;;;;;;;0.80;0.60;;;26.80;54.70;;;;;;4053336;29;20040;-60
2022/10/26 08:04:53;;;;;;;0.50;0.45;;;26.80;54.80;;;;;;4050994;29;20043;-60
2022/10/26 08:07:16;;;;;;;0.73;0.65;;;26.70;54.10;;;;;;4051122;29;20103;-60
2022/10/26 08:09:38;;;;;;;1.30;0.60;;;26.70;54.20;;;;;;4051906;29;20096;-60
2022/10/26 08:12:01;;;;;;;1.92;0.82;;;26.70;54.10;;;;;;4051029;29;20547;-59
2022/10/26 08:14:23;;;;;;;1.23;0.68;;;26.70;54.20;;;;;;4050190;29;20036;-59
2022/10/26 08:16:46;;;;;;;0.65;0.60;;;26.70;54.10;;;;;;4045573;29;20056;-60
2022/10/26 08:19:09;;;;;;;1.23;0.57;;;26.70;54.30;;;;;;4047238;29;20076;-59
2022/10/26 08:21:32;;;;;;;1.05;0.77;;;26.70;54.30;;;;;;4045739;29;20123;-60
2022/10/26 08:23:54;;;;;;;0.52;0.50;;;26.60;54.20;;;;;;4045271;29;20090;-59
2022/10/26 08:26:17;;;;;;;0.50;0.43;;;26.60;54.60;;;;;;4047325;29;20401;-59
2022/10/26 08:28:41;;;;;;;0.57;0.43;;;26.60;54.20;;;;;;4050962;29;20044;-59
2022/10/26 08:31:04;;;;;;;4.43;0.70;;;26.60;54.00;;;;;;4054346;29;20040;-59
2022/10/26 08:33:26;;;;;;;0.38;0.38;;;26.60;53.70;;;;;;4051202;29;20401;-60
2022/10/26 08:35:54;;;;;;;0.30;0.30;;;26.50;53.50;;;;;;4052094;29;20501;-59
2022/10/26 08:38:16;;;;;;;1.00;0.57;;;26.50;53.40;;;;;;4050551;29;20107;-58
2022/10/26 08:40:42;;;;;;;0.45;0.40;;;26.50;53.30;;;;;;4045159;29;20051;-59
2022/10/26 08:43:13;;;;;;;1.30;0.70;;;26.50;53.30;;;;;;4048100;29;20083;-59
2022/10/26 08:45:56;;;;;;;0.57;0.52;;;26.50;53.40;;;;;;4049703;29;20044;-59
2022/10/26 08:48:26;;;;;;;1.33;0.80;;;26.50;53.30;;;;;;4049136;29;20138;-59
2022/10/26 08:51:00;;;;;;;1.70;0.60;;;26.50;53.20;;;;;;4041666;29;20118;-59
2022/10/26 08:53:40;;;;;;;0.95;0.52;;;26.50;53.10;;;;;;4049965;29;20060;-59
2022/10/26 08:56:27;;;;;;;1.23;0.60;;;26.40;53.20;;;;;;4046767;29;20192;-59
2022/10/26 08:59:27;;;;;;;1.00;0.52;;;26.40;52.90;;;;;;4046549;29;20535;-59
2022/10/26 09:01:50;;;;;;;1.42;0.43;;;26.40;52.90;;;;;;4051337;29;20040;-59
2022/10/26 09:04:13;;;;;;;0.82;0.70;;;26.40;52.80;;;;;;4047510;29;20055;-59
2022/10/26 09:07:00;;;;;;;1.10;0.60;;;26.40;52.60;;;;;;4048281;29;20624;-59
2022/10/26 09:09:40;;;;;;;0.95;0.63;;;26.40;52.70;;;;;;4048070;29;20044;-59
2022/10/26 09:12:21;;;;;;;1.02;0.70;;;26.30;52.60;;;;;;4050997;29;20055;-59
2022/10/26 09:14:52;;;;;;;0.82;0.70;;;26.30;52.80;;;;;;4051521;29;20060;-59
2022/10/26 09:17:52;;;;;;;0.80;0.50;;;26.30;52.60;;;;;;4049019;29;20234;-59
2022/10/26 09:20:35;;;;;;;0.50;0.50;;;26.30;52.60;;;;;;4050970;29;20103;-59
2022/10/26 09:23:11;;;;;;;1.25;0.60;;;26.30;52.90;;;;;;4051367;29;20040;-60
2022/10/26 09:25:39;;;;;;;0.98;0.52;;;26.30;52.40;;;;;;4054969;29;20051;-59
2022/10/26 09:28:03;;;;;;;0.63;0.50;;;26.30;52.30;;;;;;4053768;29;20542;-59
2022/10/26 09:30:26;;;;;;;0.88;0.70;;;26.20;52.30;;;;;;4048879;29;20074;-59
2022/10/26 09:32:51;;;;;;;1.57;0.80;;;26.20;52.50;;;;;;4057162;29;20040;-60
2022/10/26 09:35:18;;;;;;;0.80;0.60;;;26.20;52.30;;;;;;4057406;29;20354;-59
2022/10/26 09:37:47;;;;;;;0.63;0.60;;;26.20;52.30;;;;;;4057024;29;20469;-60
2022/10/26 09:40:30;;;;;;;1.15;0.75;;;26.20;52.10;;;;;;4057189;29;20119;-59
2022/10/26 09:43:00;;;;;;;0.43;0.40;;;26.20;52.00;;;;;;4047000;29;20128;-59
2022/10/26 09:45:30;;;;;;;0.98;0.60;;;26.20;51.90;;;;;;4052533;29;20048;-60
2022/10/26 09:47:55;;;;;;;0.70;0.60;;;26.20;52.20;;;;;;4043180;29;20074;-59
2022/10/26 09:50:39;;;;;;;1.27;0.70;;;26.20;52.10;;;;;;4050304;29;20036;-59
2022/10/26 09:53:03;;;;;;;0.82;0.60;;;26.20;52.20;;;;;;4049291;29;20419;-59
2022/10/26 09:55:26;;;;;;;0.88;0.60;;;26.20;52.10;;;;;;4050256;29;20500;-59
2022/10/26 09:57:52;;;;;;;1.10;0.70;;;26.20;52.10;;;;;;4053962;29;20048;-59
2022/10/26 10:00:17;;;;;;;1.38;0.55;;;26.20;52.30;;;;;;4051967;29;20043;-59
2022/10/26 10:02:44;;;;;;;1.27;0.68;;;26.20;52.20;;;;;;4051085;29;20055;-59
2022/10/26 10:05:27;;;;;;;0.60;0.50;;;26.20;52.20;;;;;;4046971;29;20148;-59
2022/10/26 10:07:50;;;;;;;1.25;0.60;;;26.10;52.20;;;;;;4042038;29;20666;-59
2022/10/26 10:10:22;;;;;;;0.70;0.55;;;26.10;52.40;;;;;;4048789;29;21013;-59
2022/10/26 10:12:49;;;;;;;0.80;0.60;;;26.10;52.40;;;;;;4043688;29;20040;-60
2022/10/26 10:15:23;;;;;;;1.45;0.45;;;26.10;52.50;;;;;;4047732;29;20278;-59
2022/10/26 10:17:51;;;;;;;0.35;0.30;;;26.10;52.90;;;;;;4047069;29;20048;-59
2022/10/26 10:20:32;;;;;;;1.15;0.50;;;26.10;53.20;;;;;;4049784;29;20052;-59
2022/10/26 10:22:56;;;;;;;0.52;0.47;;;26.10;53.40;;;;;;4047927;29;20048;-60
2022/10/26 10:25:36;;;;;;;0.40;0.40;;;26.10;53.60;;;;;;4046742;29;20312;-59
2022/10/26 10:27:59;;;;;;;0.73;0.55;;;26.10;53.80;;;;;;4047322;29;20179;-57
2022/10/26 10:30:27;;;;;;;5.47;0.70;;;26.10;54.30;;;;;;4049421;29;20048;-58
2022/10/26 10:33:11;;;;;;;2.95;0.80;;;26.10;55.00;;;;;;4047411;29;20040;-58
2022/10/26 10:35:34;;;;;;;4.53;0.60;;;26.10;55.60;;;;;;4052802;29;20044;-58
2022/10/26 10:37:57;;;;;;;11.90;1.00;;;26.10;56.20;;;;;;4054132;29;20044;-58
2022/10/26 10:40:22;;;;;;;3.00;0.45;;;26.10;56.40;;;;;;4049571;29;20498;-58
2022/10/26 10:42:46;;;;;;;1.77;0.55;;;26.10;56.60;;;;;;4048033;29;20044;-56
2022/10/26 10:45:23;;;;;;;1.23;0.60;;;26.20;57.10;;;;;;4053082;29;20102;-57
2022/10/26 10:48:00;;;;;;;1.40;0.50;;;26.20;57.20;;;;;;4053535;28;20040;-55
2022/10/26 10:50:23;;;;;;;0.82;0.50;;;26.20;57.80;;;;;;4052765;29;20055;-55
2022/10/26 10:52:46;;;;;;;2.05;0.60;;;26.30;58.00;;;;;;4047390;29;20480;-50
2022/10/26 10:55:14;;;;;;;0.43;0.35;;;26.30;58.30;;;;;;4050531;29;20048;-52
2022/10/26 10:58:04;;;;;;;3.28;0.80;;;26.30;58.60;;;;;;4053042;29;20580;-58
2022/10/26 11:00:26;;;;;;;0.88;0.60;;;26.30;58.30;;;;;;4051434;29;20483;-57
2022/10/26 11:03:15;;;;;;;2.65;0.75;;;26.30;57.40;;;;;;4050854;29;20055;-57
2022/10/26 11:06:13;;;;;;;9.50;1.05;;;26.40;57.00;;;;;;4052345;29;20094;-60
2022/10/26 11:08:43;;;;;;;5.55;0.70;;;26.30;57.00;;;;;;4051859;29;20065;-59
2022/10/26 11:11:13;;;;;;;6.80;0.90;;;26.30;57.40;;;;;;4050495;29;20548;-58
2022/10/26 11:13:59;;;;;;;4.40;0.82;;;26.30;57.80;;;;;;4050651;29;20032;-60
2022/10/26 11:16:30;;;;;;;5.38;0.77;;;26.30;58.20;;;;;;4050718;29;20052;-57
2022/10/26 11:19:05;;;;;;;8.90;0.98;;;26.30;58.60;;;;;;4051177;29;20278;-60
2022/10/26 11:21:30;;;;;;;3.08;0.60;;;26.30;58.70;;;;;;4050112;29;20054;-57
2022/10/26 11:24:14;;;;;;;1.77;0.70;;;26.30;58.80;;;;;;4051539;29;20522;-59
2022/10/26 11:26:58;;;;;;;3.00;0.90;;;26.30;59.10;;;;;;4049735;29;20497;-58
2022/10/26 11:29:50;;;;;;;4.53;0.77;;;26.40;59.50;;;;;;4051311;29;20044;-60
2022/10/26 11:32:50;;;;;;;4.88;0.85;;;26.40;59.50;;;;;;4047017;29;20405;-55
2022/10/26 11:35:23;;;;;;;8.60;1.13;;;26.40;60.10;;;;;;4034803;29;20062;-57
2022/10/26 11:38:13;;;;;;;6.05;1.10;;;26.40;60.30;;;;;;4049134;29;20086;-55
2022/10/26 11:41:00;;;;;;;9.65;1.23;;;26.40;60.50;;;;;;4052769;29;20036;-60
2022/10/26 11:43:34;;;;;;;1.23;0.70;;;26.40;60.60;;;;;;4049150;29;20047;-60
2022/10/26 11:46:05;;;;;;;8.18;1.33;;;26.50;60.50;;;;;;4051780;29;20472;-58
2022/10/26 11:48:49;;;;;;;2.60;0.80;;;26.50;60.60;;;;;;4051507;29;20123;-58
2022/10/26 11:51:40;;;;;;;3.00;0.75;;;26.50;60.50;;;;;;4049744;29;20068;-58
2022/10/26 11:54:30;;;;;;;1.58;0.60;;;26.50;60.40;;;;;;4050683;29;20048;-57
2022/10/26 11:56:55;;;;;;;5.18;1.10;;;26.50;60.40;;;;;;4049637;29;20056;-52
2022/10/26 11:59:24;;;;;;;2.88;0.80;;;26.50;60.40;;;;;;4052907;29;20211;-58
2022/10/26 12:02:09;;;;;;;4.00;1.02;;;26.50;60.60;;;;;;4051856;29;20044;-57
2022/10/26 12:04:35;;;;;;;4.38;1.17;;;26.50;60.50;;;;;;4048997;29;20051;-58
2022/10/26 12:07:01;;;;;;;2.60;0.73;;;26.50;60.50;;;;;;4049358;29;20568;-55
2022/10/26 12:09:29;;;;;;;1.95;0.60;;;26.50;60.60;;;;;;4048937;29;20086;-62
2022/10/26 12:12:00;;;;;;;4.57;0.65;;;26.50;60.70;;;;;;4049839;29;20433;-60
2022/10/26 12:14:49;;;;;;;2.28;0.70;;;26.50;60.50;;;;;;4048626;29;20076;-58
2022/10/26 12:17:24;;;;;;;3.97;0.70;;;26.50;60.40;;;;;;4053201;29;20063;-60
2022/10/26 12:20:20;;;;;;;5.05;0.70;;;26.50;60.50;;;;;;4052471;29;20066;-62
2022/10/26 12:22:43;;;;;;;3.17;0.65;;;26.50;60.50;;;;;;4048033;29;20051;-57
2022/10/26 12:25:15;;;;;;;1.80;0.80;;;26.50;60.40;;;;;;4053084;29;20397;-58
2022/10/26 12:27:40;;;;;;;1.40;0.50;;;26.50;60.50;;;;;;4050820;29;20055;-58
2022/10/26 12:30:30;;;;;;;4.13;0.85;;;26.50;60.60;;;;;;4048922;29;20051;-58
2022/10/26 12:32:54;;;;;;;3.83;1.08;;;26.50;60.40;;;;;;4045987;29;20036;-60
2022/10/26 12:35:31;;;;;;;4.07;0.70;;;26.50;60.50;;;;;;4052579;29;20104;-58
2022/10/26 12:37:53;;;;;;;5.70;0.70;;;26.50;60.40;;;;;;4051853;29;20487;-59
2022/10/26 12:40:31;;;;;;;2.85;0.57;;;26.50;60.50;;;;;;4050923;29;20689;-58
2022/10/26 12:42:54;;;;;;;3.17;0.75;;;26.50;60.40;;;;;;4048715;29;20577;-58
2022/10/26 12:45:23;;;;;;;0.95;0.57;;;26.50;60.30;;;;;;4049525;29;20468;-57
2022/10/26 12:47:50;;;;;;;3.20;0.77;;;26.50;60.30;;;;;;4054351;29;20123;-57
2022/10/26 12:50:12;;;;;;;2.88;0.73;;;26.50;60.40;;;;;;4047645;29;20044;-57
2022/10/26 12:52:56;;;;;;;4.00;0.80;;;26.50;60.50;;;;;;4047771;29;20127;-58
2022/10/26 12:55:50;;;;;;;4.57;0.82;;;26.50;60.50;;;;;;4044324;29;20048;-60